Portada
METAR-TAF:

METAR-TAF

Aeroports :

Skopje, Macedònia

latitud: 41-58N, longitud: 021-39E, altitud: 238 m

Observació

L'informe es va fer fa 19 minuts, a les 02:00 UTC
Vent 1 kt del Nord
Temperatura 12°C
Humitat 82%
Pressió 1022 hPa
Visibilitat 10 km o més
Cel ennuvolat a una alçada de 4000 ft

METAR: LWSK 280200Z 35001KT 9999 BKN040 12/09 Q1022 NOSIG

Hora: 04:19 (02:19 UTC)

Pronòstic

L'informe es va fer fa 2 hores i 49 minuts, a les 23:30 UTC
Pronòstic vàlid del 28 a les 00 UTC al 28 a les 24 UTC
Vent 2 kt amb direcció variable
Visibilitat 10 km o més
Escasses núvols a una alçada de 5000 ft
Núvols disperses a una alçada de 8000 ft
Temporalment
l' 28 a les 10 UTC al 28 a les 18 UTC
Vent 15 kt del Nord/Nord-Oest amb ràfegues de 25 kt
Núvols disperses a una alçada de 4000 ft
Cel ennuvolat a una alçada de 7000 ft

TAF: LWSK 272330Z 2800/2824 VRB02KT 9999 FEW050 SCT080 TEMPO 2810/2818 34015G25KT SCT040 BKN070

Observacions i pronòstics meteorològics de més de 4000 aeroports (METAR i TAF).

Les estacions disponibles són els punts grocs i vermells al mapa.

Posi el ratolí al punt desitjat per veure el nom de l'estació.

Feu clic per veure les observacions i els pronòstics meteorològics.

Per canviar el mapa: feu clic els botons verds amb una creu de color negre per apropar; al botó verd amb un guió per allunyar la imatge; o en les fletxes verdes per a mapes adjacents.


METAR-TAF: